createdAt,value
2022-10-19T00:02:12.352Z,100.00
2022-10-19T00:04:39.074Z,100.00
2022-10-19T00:07:05.722Z,100.00
2022-10-19T00:09:35.026Z,100.00
2022-10-19T00:12:01.607Z,100.00
2022-10-19T00:14:28.421Z,100.00
2022-10-19T00:16:55.762Z,100.00
2022-10-19T00:19:28.680Z,100.00
2022-10-19T00:21:55.367Z,100.00
2022-10-19T00:24:22.106Z,100.00
2022-10-19T00:26:48.839Z,100.00
2022-10-19T00:29:15.762Z,100.00
2022-10-19T00:31:42.657Z,100.00
2022-10-19T00:34:09.630Z,100.00
2022-10-19T00:36:39.435Z,100.00
2022-10-19T00:39:11.411Z,100.00
2022-10-19T00:41:38.742Z,100.00
2022-10-19T00:44:12.546Z,100.00
2022-10-19T00:46:42.115Z,100.00
2022-10-19T00:49:12.388Z,100.00
2022-10-19T00:51:45.530Z,100.00
2022-10-19T00:54:12.664Z,100.00
2022-10-19T00:56:41.956Z,100.00
2022-10-19T00:59:09.739Z,100.00
2022-10-19T01:01:36.587Z,100.00
2022-10-19T01:04:04.489Z,100.00
2022-10-19T01:06:31.341Z,100.00
2022-10-19T01:08:57.669Z,100.00
2022-10-19T01:11:42.162Z,100.00
2022-10-19T01:14:21.224Z,100.00
2022-10-19T01:17:41.682Z,100.00
2022-10-19T01:20:17.115Z,100.00
2022-10-19T01:23:05.472Z,100.00
2022-10-19T01:25:34.877Z,100.00
2022-10-19T01:28:24.885Z,100.00
2022-10-19T01:31:00.701Z,100.00
2022-10-19T01:33:46.055Z,100.00
2022-10-19T01:36:31.965Z,100.00
2022-10-19T01:39:09.604Z,100.00
2022-10-19T01:41:52.403Z,100.00
2022-10-19T01:44:42.960Z,100.00
2022-10-19T01:47:18.268Z,100.00
2022-10-19T01:49:50.925Z,100.00
2022-10-19T01:52:19.019Z,100.00
2022-10-19T01:54:50.353Z,100.00
2022-10-19T01:57:23.983Z,100.00
2022-10-19T01:59:51.787Z,100.00
2022-10-19T02:02:19.688Z,100.00
2022-10-19T02:04:49.323Z,100.00
2022-10-19T02:07:16.703Z,100.00
2022-10-19T02:09:43.040Z,100.00
2022-10-19T02:12:11.063Z,100.00
2022-10-19T02:14:43.236Z,100.00
2022-10-19T02:17:13.931Z,100.00
2022-10-19T02:19:41.208Z,100.00
2022-10-19T02:22:08.562Z,100.00
2022-10-19T02:24:35.158Z,100.00
2022-10-19T02:27:05.338Z,100.00
2022-10-19T02:29:33.304Z,100.00
2022-10-19T02:32:01.212Z,100.00
2022-10-19T02:34:28.135Z,100.00
2022-10-19T02:36:55.188Z,100.00
2022-10-19T02:39:22.089Z,100.00
2022-10-19T02:42:05.352Z,100.00
2022-10-19T02:44:47.407Z,100.00
2022-10-19T02:47:18.802Z,100.00
2022-10-19T02:49:47.256Z,100.00
2022-10-19T02:52:14.237Z,100.00
2022-10-19T02:54:42.735Z,100.00
2022-10-19T02:57:24.573Z,100.00
2022-10-19T02:59:52.397Z,100.00
2022-10-19T03:02:20.485Z,100.00
2022-10-19T03:07:20.725Z,100.00
2022-10-19T03:09:47.136Z,100.00
2022-10-19T03:12:14.906Z,100.00
2022-10-19T03:14:41.278Z,100.00
2022-10-19T03:17:07.824Z,100.00
2022-10-19T03:19:35.579Z,100.00
2022-10-19T03:22:02.244Z,100.00
2022-10-19T03:24:30.954Z,100.00
2022-10-19T03:26:59.826Z,100.00
2022-10-19T03:29:26.247Z,100.00
2022-10-19T03:31:52.586Z,100.00
2022-10-19T03:34:21.505Z,100.00
2022-10-19T03:36:47.951Z,100.00
2022-10-19T03:39:15.804Z,100.00
2022-10-19T03:41:42.545Z,100.00
2022-10-19T03:44:10.485Z,100.00
2022-10-19T03:46:38.266Z,100.00
2022-10-19T03:49:05.676Z,100.00
2022-10-19T03:51:33.266Z,100.00
2022-10-19T03:54:04.344Z,100.00
2022-10-19T03:56:32.011Z,100.00
2022-10-19T03:59:00.428Z,100.00
2022-10-19T04:01:38.732Z,100.00
2022-10-19T04:04:10.435Z,100.00
2022-10-19T04:06:39.964Z,100.00
2022-10-19T04:09:08.246Z,100.00
2022-10-19T04:11:35.642Z,100.00
2022-10-19T04:14:02.755Z,100.00
2022-10-19T04:16:33.286Z,100.00
2022-10-19T04:19:00.397Z,100.00
2022-10-19T04:21:37.825Z,100.00
2022-10-19T04:24:06.850Z,100.00
2022-10-19T04:26:34.912Z,100.00
2022-10-19T04:29:01.707Z,100.00
2022-10-19T04:31:28.793Z,100.00
2022-10-19T04:33:55.480Z,100.00
2022-10-19T04:36:21.863Z,100.00
2022-10-19T04:38:48.457Z,100.00
2022-10-19T04:41:19.137Z,100.00
2022-10-19T04:43:46.719Z,100.00
2022-10-19T04:46:16.198Z,100.00
2022-10-19T04:48:43.545Z,100.00
2022-10-19T04:51:11.141Z,100.00
2022-10-19T04:53:39.481Z,100.00
2022-10-19T04:56:12.962Z,100.00
2022-10-19T04:58:39.305Z,100.00
2022-10-19T05:01:21.318Z,100.00
2022-10-19T05:03:48.371Z,100.00
2022-10-19T05:06:15.577Z,100.00
2022-10-19T05:08:42.301Z,100.00
2022-10-19T05:11:14.377Z,100.00
2022-10-19T05:13:41.981Z,100.00
2022-10-19T05:16:11.961Z,100.00
2022-10-19T05:18:38.980Z,100.00
2022-10-19T05:21:09.048Z,100.00
2022-10-19T05:23:35.606Z,100.00
2022-10-19T05:26:10.591Z,100.00
2022-10-19T05:28:37.616Z,100.00
2022-10-19T05:31:12.684Z,100.00
2022-10-19T05:33:40.297Z,100.00
2022-10-19T05:36:17.638Z,100.00
2022-10-19T05:38:45.932Z,100.00
2022-10-19T05:41:13.092Z,100.00
2022-10-19T05:43:40.897Z,100.00
2022-10-19T05:46:10.073Z,100.00
2022-10-19T05:48:37.163Z,100.00
2022-10-19T05:51:05.283Z,100.00
2022-10-19T05:53:33.289Z,100.00
2022-10-19T05:55:59.702Z,100.00
2022-10-19T05:58:26.463Z,100.00
2022-10-19T06:00:56.897Z,100.00
2022-10-19T06:03:24.689Z,100.00
2022-10-19T06:05:51.994Z,100.00
2022-10-19T06:08:19.008Z,100.00
2022-10-19T06:10:46.145Z,100.00
2022-10-19T06:13:13.041Z,100.00
2022-10-19T06:15:40.261Z,100.00
2022-10-19T06:18:07.882Z,100.00
2022-10-19T06:20:36.045Z,100.00
2022-10-19T06:23:02.492Z,100.00
2022-10-19T06:25:30.541Z,100.00
2022-10-19T06:27:57.446Z,100.00
2022-10-19T06:30:26.297Z,100.00
2022-10-19T06:32:53.052Z,100.00
2022-10-19T06:35:22.432Z,100.00
2022-10-19T06:37:53.388Z,100.00
2022-10-19T06:40:19.748Z,100.00
2022-10-19T06:42:46.077Z,100.00
2022-10-19T06:45:16.725Z,100.00
2022-10-19T06:47:43.095Z,100.00
2022-10-19T06:50:12.870Z,100.00
2022-10-19T06:52:40.847Z,100.00
2022-10-19T06:55:07.762Z,100.00
2022-10-19T06:57:34.576Z,100.00
2022-10-19T07:00:01.737Z,100.00
2022-10-19T07:02:28.080Z,100.00
2022-10-19T07:04:54.491Z,100.00
2022-10-19T07:07:20.831Z,100.00
2022-10-19T07:09:48.250Z,100.00
2022-10-19T07:12:14.619Z,100.00
2022-10-19T07:14:41.005Z,100.00
2022-10-19T07:17:07.944Z,100.00
2022-10-19T07:19:34.828Z,100.00
2022-10-19T07:22:01.313Z,100.00
2022-10-19T07:24:27.612Z,100.00
2022-10-19T07:26:54.198Z,100.00
2022-10-19T07:29:20.950Z,100.00
2022-10-19T07:31:47.377Z,100.00
2022-10-19T07:34:14.561Z,100.00
2022-10-19T07:36:44.836Z,100.00
2022-10-19T07:39:12.637Z,100.00
2022-10-19T07:41:39.652Z,100.00
2022-10-19T07:44:06.348Z,100.00
2022-10-19T07:46:37.152Z,100.00
2022-10-19T07:49:06.950Z,100.00
2022-10-19T07:51:33.440Z,100.00
2022-10-19T07:53:59.770Z,100.00
2022-10-19T07:56:28.146Z,100.00
2022-10-19T07:58:55.956Z,100.00
2022-10-19T08:01:24.771Z,100.00
2022-10-19T08:06:42.304Z,100.00
2022-10-19T08:09:11.309Z,100.00
2022-10-19T08:11:42.094Z,100.00
2022-10-19T08:14:08.437Z,100.00
2022-10-19T08:16:38.785Z,100.00
2022-10-19T08:19:08.223Z,100.00
2022-10-19T08:21:36.558Z,100.00
2022-10-19T08:24:03.799Z,100.00
2022-10-19T08:26:32.133Z,100.00
2022-10-19T08:29:03.811Z,100.00
2022-10-19T08:31:30.140Z,100.00
2022-10-19T08:33:56.508Z,100.00
2022-10-19T08:36:23.345Z,100.00
2022-10-19T08:38:50.425Z,100.00
2022-10-19T08:41:52.024Z,100.00
2022-10-19T08:43:43.132Z,100.00
2022-10-19T08:44:49.457Z,100.00
2022-10-19T08:45:33.528Z,100.00
2022-10-19T08:47:23.605Z,100.00
2022-10-19T08:49:50.884Z,100.00
2022-10-19T08:50:33.535Z,100.00
2022-10-19T08:52:24.281Z,100.00
2022-10-19T08:54:56.343Z,100.00
2022-10-19T08:55:33.531Z,100.00
2022-10-19T08:57:31.080Z,100.00
2022-10-19T09:00:06.140Z,100.00
2022-10-19T09:00:33.652Z,100.00
2022-10-19T09:03:11.188Z,100.00
2022-10-19T09:05:33.674Z,100.00
2022-10-19T09:05:50.166Z,100.00
2022-10-19T09:08:18.576Z,100.00
2022-10-19T09:10:33.545Z,100.00
2022-10-19T09:10:48.805Z,100.00
2022-10-19T09:13:41.624Z,100.00
2022-10-19T09:15:33.547Z,100.00
2022-10-19T09:16:21.048Z,100.00
2022-10-19T09:18:47.452Z,100.00
2022-10-19T09:20:33.648Z,100.00
2022-10-19T09:21:38.044Z,100.00
2022-10-19T09:24:41.822Z,100.00
2022-10-19T09:25:33.517Z,100.00
2022-10-19T09:27:19.884Z,100.00
2022-10-19T09:30:10.505Z,100.00
2022-10-19T09:30:33.543Z,100.00
2022-10-19T09:32:38.689Z,100.00
2022-10-19T09:35:17.297Z,100.00
2022-10-19T09:35:33.538Z,100.00
2022-10-19T09:37:48.976Z,100.00
2022-10-19T09:40:19.909Z,100.00
2022-10-19T09:40:33.595Z,100.00
2022-10-19T09:42:46.217Z,100.00
2022-10-19T09:45:19.731Z,100.00
2022-10-19T09:45:33.534Z,100.00
2022-10-19T09:47:48.361Z,100.00
2022-10-19T09:50:16.872Z,100.00
2022-10-19T09:50:33.672Z,100.00
2022-10-19T09:52:45.304Z,100.00
2022-10-19T09:55:14.664Z,100.00
2022-10-19T09:55:33.540Z,100.00
2022-10-19T09:57:46.028Z,100.00
2022-10-19T10:00:31.105Z,100.00
2022-10-19T10:00:33.538Z,100.00
2022-10-19T10:02:57.429Z,100.00
2022-10-19T10:05:33.521Z,100.00
2022-10-19T10:05:33.840Z,100.00
2022-10-19T10:08:00.065Z,100.00
2022-10-19T10:10:37.449Z,100.00
2022-10-19T10:10:37.558Z,100.00
2022-10-19T10:13:05.213Z,100.00
2022-10-19T10:15:48.382Z,100.00
2022-10-19T10:15:48.511Z,100.00
2022-10-19T10:18:17.280Z,100.00
2022-10-19T10:20:33.603Z,100.00
2022-10-19T10:21:12.941Z,100.00
2022-10-19T10:23:39.345Z,100.00
2022-10-19T10:25:33.579Z,100.00
2022-10-19T10:26:17.137Z,100.00
2022-10-19T10:28:49.294Z,100.00
2022-10-19T10:30:33.570Z,100.00
2022-10-19T10:31:22.554Z,100.00
2022-10-19T10:34:10.802Z,100.00
2022-10-19T10:35:33.597Z,100.00
2022-10-19T10:36:53.784Z,100.00
2022-10-19T10:39:20.625Z,100.00
2022-10-19T10:40:33.551Z,100.00
2022-10-19T10:41:48.639Z,98.73
2022-10-19T10:44:26.455Z,95.94
2022-10-19T10:45:33.569Z,95.94
2022-10-19T10:46:56.696Z,97.50
2022-10-19T10:49:27.967Z,96.82
2022-10-19T10:50:33.582Z,96.82
2022-10-19T10:51:57.254Z,97.00
2022-10-19T10:54:31.320Z,92.66
2022-10-19T10:55:33.588Z,92.66
2022-10-19T10:57:20.482Z,92.08
2022-10-19T11:00:07.710Z,90.76
2022-10-19T11:00:33.568Z,90.76
2022-10-19T11:02:46.244Z,89.16
2022-10-19T11:05:33.359Z,90.68
2022-10-19T11:05:33.948Z,90.68
2022-10-19T11:08:05.646Z,89.50
2022-10-19T11:10:36.646Z,88.56
2022-10-19T11:10:36.767Z,88.56
2022-10-19T11:13:16.558Z,87.85
2022-10-19T11:15:33.557Z,87.85
2022-10-19T11:15:53.607Z,87.05
2022-10-19T11:18:36.140Z,87.96
2022-10-19T11:20:33.631Z,87.96
2022-10-19T11:21:31.596Z,86.89
2022-10-19T11:24:34.954Z,85.25
2022-10-19T11:25:33.595Z,85.25
2022-10-19T11:27:01.268Z,86.75
2022-10-19T11:29:55.307Z,85.30
2022-10-19T11:30:33.601Z,85.30
2022-10-19T11:32:49.837Z,85.17
2022-10-19T11:35:31.421Z,86.27
2022-10-19T11:35:33.579Z,86.27
2022-10-19T11:38:45.393Z,86.40
2022-10-19T11:40:33.593Z,86.40
2022-10-19T11:41:18.832Z,85.41
2022-10-19T11:43:50.258Z,84.70
2022-10-19T11:45:33.586Z,84.70
2022-10-19T11:46:30.442Z,84.49
2022-10-19T11:49:13.602Z,84.46
2022-10-19T11:50:33.625Z,84.46
2022-10-19T11:51:53.435Z,84.11
2022-10-19T11:54:36.122Z,84.53
2022-10-19T11:55:33.657Z,84.53
2022-10-19T11:57:15.946Z,82.60
2022-10-19T11:59:48.313Z,80.16
2022-10-19T12:00:39.368Z,80.16
2022-10-19T12:02:48.676Z,77.51
2022-10-19T12:05:33.467Z,79.39
2022-10-19T12:05:33.787Z,79.39
2022-10-19T12:08:08.961Z,78.03
2022-10-19T12:10:33.594Z,78.03
2022-10-19T12:10:47.856Z,78.25
2022-10-19T12:13:21.886Z,81.95
2022-10-19T12:15:33.589Z,81.95
2022-10-19T12:15:53.958Z,80.27
2022-10-19T12:18:41.730Z,78.58
2022-10-19T12:20:33.601Z,78.58
2022-10-19T12:21:24.408Z,78.76
2022-10-19T12:23:54.076Z,78.87
2022-10-19T12:25:33.598Z,78.87
2022-10-19T12:26:22.225Z,79.55
2022-10-19T12:29:01.818Z,77.18
2022-10-19T12:30:33.608Z,77.18
2022-10-19T12:31:29.581Z,75.33
2022-10-19T12:34:18.560Z,76.76
2022-10-19T12:35:33.603Z,76.76
2022-10-19T12:36:56.555Z,77.96
2022-10-19T12:39:28.851Z,76.43
2022-10-19T12:40:33.612Z,76.43
2022-10-19T12:42:19.266Z,76.49
2022-10-19T12:45:10.757Z,74.10
2022-10-19T12:45:33.619Z,74.10
2022-10-19T12:47:39.396Z,73.80
2022-10-19T12:50:06.793Z,73.15
2022-10-19T12:50:36.301Z,73.15
2022-10-19T12:52:44.460Z,74.08
2022-10-19T12:55:34.758Z,75.48
2022-10-19T12:55:35.114Z,75.48
2022-10-19T12:58:20.560Z,75.32
2022-10-19T13:00:33.643Z,75.32
2022-10-19T13:01:02.410Z,76.08
2022-10-19T13:03:36.252Z,76.62
2022-10-19T13:05:33.961Z,76.62
2022-10-19T13:06:15.919Z,75.58
2022-10-19T13:08:47.296Z,77.52
2022-10-19T13:10:33.658Z,77.52
2022-10-19T13:11:15.611Z,77.63
2022-10-19T13:14:06.129Z,77.85
2022-10-19T13:15:33.817Z,77.85
2022-10-19T13:16:40.318Z,76.39
2022-10-19T13:19:12.866Z,75.62
2022-10-19T13:20:34.812Z,75.62
2022-10-19T13:21:45.684Z,75.13
2022-10-19T13:24:24.405Z,73.98
2022-10-19T13:25:33.624Z,73.98
2022-10-19T13:26:59.863Z,75.63
2022-10-19T13:29:28.736Z,76.67
2022-10-19T13:30:33.643Z,76.67
2022-10-19T13:32:36.874Z,76.90
2022-10-19T13:35:29.588Z,77.85
2022-10-19T13:35:33.665Z,77.85
2022-10-19T13:38:14.565Z,78.47
2022-10-19T13:40:33.626Z,78.47
2022-10-19T13:40:49.901Z,75.96
2022-10-19T13:43:22.676Z,77.50
2022-10-19T13:45:33.636Z,77.50
2022-10-19T13:46:03.758Z,76.20
2022-10-19T13:48:23.304Z,76.20
2022-10-19T13:49:06.712Z,77.23
2022-10-19T13:49:17.961Z,77.23
2022-10-19T13:49:29.052Z,77.23
2022-10-19T13:52:11.702Z,76.33
2022-10-19T13:54:26.858Z,76.33
2022-10-19T13:55:10.698Z,75.89
2022-10-19T13:58:05.936Z,77.79
2022-10-19T14:01:00.724Z,75.77
2022-10-19T14:03:48.549Z,78.98
2022-10-19T14:04:26.873Z,78.98
2022-10-19T14:06:33.757Z,78.35
2022-10-19T14:09:04.570Z,77.53
2022-10-19T14:09:26.903Z,77.53
2022-10-19T14:11:35.630Z,77.73
2022-10-19T14:14:11.117Z,79.41
2022-10-19T14:14:26.869Z,79.41
2022-10-19T14:16:50.656Z,80.46
2022-10-19T14:19:27.462Z,78.32
2022-10-19T14:19:27.888Z,78.32
2022-10-19T14:20:44.195Z,78.32
2022-10-19T14:21:56.141Z,78.04
2022-10-19T14:24:30.300Z,77.91
2022-10-19T14:25:44.123Z,77.91
2022-10-19T14:26:59.513Z,79.09
2022-10-19T14:29:26.047Z,80.06
2022-10-19T14:30:44.113Z,80.06
2022-10-19T14:31:53.938Z,80.30
2022-10-19T14:34:20.547Z,79.94
2022-10-19T14:35:44.116Z,79.94
2022-10-19T14:36:49.064Z,80.66
2022-10-19T14:39:34.218Z,81.70
2022-10-19T14:40:44.128Z,81.70
2022-10-19T14:42:05.694Z,82.04
2022-10-19T14:44:43.938Z,80.10
2022-10-19T14:45:44.132Z,80.10
2022-10-19T14:47:22.265Z,80.16
2022-10-19T14:49:49.614Z,80.60
2022-10-19T14:50:44.195Z,80.60
2022-10-19T14:55:04.913Z,79.68
2022-10-19T14:55:44.136Z,79.68
2022-10-19T14:57:38.860Z,80.81
2022-10-19T15:00:11.411Z,80.52
2022-10-19T15:00:44.113Z,80.52
2022-10-19T15:02:12.633Z,80.52
2022-10-19T15:02:48.150Z,81.18
2022-10-19T15:05:20.443Z,82.34
2022-10-19T15:07:12.557Z,82.34
2022-10-19T15:07:47.467Z,82.26
2022-10-19T15:10:21.379Z,81.35
2022-10-19T15:12:12.562Z,81.35
2022-10-19T15:12:51.355Z,82.42
2022-10-19T15:15:22.683Z,81.28
2022-10-19T15:17:12.580Z,81.28
2022-10-19T15:17:53.705Z,82.78
2022-10-19T15:20:55.122Z,82.98
2022-10-19T15:22:12.671Z,82.98
2022-10-19T15:23:44.745Z,82.18
2022-10-19T15:26:24.650Z,83.94
2022-10-19T15:27:12.546Z,83.94
2022-10-19T15:28:51.877Z,84.05
2022-10-19T15:31:27.851Z,83.68
2022-10-19T15:32:12.549Z,83.68
2022-10-19T15:33:57.381Z,85.08
2022-10-19T15:36:25.321Z,86.79
2022-10-19T15:37:12.929Z,86.79
2022-10-19T15:39:06.171Z,87.03
2022-10-19T15:41:44.157Z,88.24
2022-10-19T15:42:12.587Z,88.24
2022-10-19T15:44:33.787Z,87.70
2022-10-19T15:47:15.207Z,87.09
2022-10-19T15:47:15.399Z,87.09
2022-10-19T15:49:41.571Z,88.32
2022-10-19T15:52:16.052Z,89.65
2022-10-19T15:52:16.172Z,89.65
2022-10-19T15:54:42.888Z,89.75
2022-10-19T15:57:31.730Z,90.75
2022-10-19T15:57:32.171Z,90.75
2022-10-19T16:00:00.612Z,91.72
2022-10-19T16:02:12.570Z,91.72
2022-10-19T16:02:26.989Z,92.21
2022-10-19T16:04:54.438Z,92.68
2022-10-19T16:07:12.550Z,92.68
2022-10-19T16:07:30.372Z,93.27
2022-10-19T16:09:57.397Z,94.20
2022-10-19T16:12:12.888Z,94.20
2022-10-19T16:12:24.976Z,95.06
2022-10-19T16:14:51.429Z,96.55
2022-10-19T16:17:12.543Z,96.55
2022-10-19T16:17:17.996Z,97.06
2022-10-19T16:19:44.657Z,97.39
2022-10-19T16:22:12.688Z,97.99
2022-10-19T16:22:12.809Z,97.99
2022-10-19T16:24:39.433Z,99.51
2022-10-19T16:27:06.878Z,100.00
2022-10-19T16:27:12.653Z,100.00
2022-10-19T16:29:33.449Z,100.00
2022-10-19T16:31:59.928Z,100.00
2022-10-19T16:32:12.540Z,100.00
2022-10-19T16:34:26.298Z,100.00
2022-10-19T16:36:52.852Z,100.00
2022-10-19T16:37:12.560Z,100.00
2022-10-19T16:39:19.242Z,100.00
2022-10-19T16:41:45.616Z,100.00
2022-10-19T16:42:12.557Z,100.00
2022-10-19T16:44:12.550Z,100.00
2022-10-19T16:46:39.048Z,100.00
2022-10-19T16:47:12.569Z,100.00
2022-10-19T16:49:05.599Z,100.00
2022-10-19T16:51:36.369Z,100.00
2022-10-19T16:52:12.545Z,100.00
2022-10-19T16:54:04.739Z,100.00
2022-10-19T16:56:32.269Z,100.00
2022-10-19T16:57:12.559Z,100.00
2022-10-19T16:59:05.262Z,100.00
2022-10-19T17:01:34.027Z,100.00
2022-10-19T17:02:12.566Z,100.00
2022-10-19T17:04:00.601Z,100.00
2022-10-19T17:06:28.608Z,100.00
2022-10-19T17:07:12.550Z,100.00
2022-10-19T17:11:45.336Z,100.00
2022-10-19T17:12:12.910Z,100.00
2022-10-19T17:14:12.888Z,100.00
2022-10-19T17:16:39.260Z,100.00
2022-10-19T17:17:12.568Z,100.00
2022-10-19T17:19:07.663Z,100.00
2022-10-19T17:21:38.427Z,100.00
2022-10-19T17:22:12.633Z,100.00
2022-10-19T17:24:07.653Z,100.00
2022-10-19T17:26:37.208Z,100.00
2022-10-19T17:27:12.552Z,100.00
2022-10-19T17:29:05.650Z,100.00
2022-10-19T17:31:32.543Z,100.00
2022-10-19T17:32:12.546Z,100.00
2022-10-19T17:34:00.540Z,100.00
2022-10-19T17:36:30.537Z,100.00
2022-10-19T17:37:12.654Z,100.00
2022-10-19T17:38:59.774Z,100.00
2022-10-19T17:41:27.113Z,100.00
2022-10-19T17:42:12.555Z,100.00
2022-10-19T17:43:54.202Z,100.00
2022-10-19T17:46:24.169Z,100.00
2022-10-19T17:47:12.555Z,100.00
2022-10-19T17:48:50.728Z,100.00
2022-10-19T17:51:20.417Z,100.00
2022-10-19T17:52:12.550Z,100.00
2022-10-19T17:53:48.291Z,100.00
2022-10-19T17:56:17.711Z,100.00
2022-10-19T17:57:12.557Z,100.00
2022-10-19T17:58:44.969Z,100.00
2022-10-19T18:01:12.635Z,100.00
2022-10-19T18:02:12.567Z,100.00
2022-10-19T18:03:39.815Z,100.00
2022-10-19T18:06:15.160Z,100.00
2022-10-19T18:07:12.550Z,100.00
2022-10-19T18:08:44.011Z,100.00
2022-10-19T18:11:14.010Z,100.00
2022-10-19T18:12:12.618Z,100.00
2022-10-19T18:13:41.018Z,100.00
2022-10-19T18:16:13.389Z,100.00
2022-10-19T18:17:12.563Z,100.00
2022-10-19T18:18:42.655Z,100.00
2022-10-19T18:21:12.896Z,100.00
2022-10-19T18:22:12.644Z,100.00
2022-10-19T18:23:40.287Z,100.00
2022-10-19T18:26:13.457Z,100.00
2022-10-19T18:27:12.567Z,100.00
2022-10-19T18:28:40.715Z,100.00
2022-10-19T18:31:13.533Z,100.00
2022-10-19T18:32:12.578Z,100.00
2022-10-19T18:33:40.702Z,100.00
2022-10-19T18:36:09.976Z,100.00
2022-10-19T18:37:12.561Z,100.00
2022-10-19T18:38:36.804Z,100.00
2022-10-19T18:41:04.587Z,100.00
2022-10-19T18:42:12.592Z,100.00
2022-10-19T18:43:31.188Z,100.00
2022-10-19T18:45:59.235Z,100.00
2022-10-19T18:47:12.581Z,100.00
2022-10-19T18:48:27.921Z,100.00
2022-10-19T18:50:54.890Z,100.00
2022-10-19T18:52:12.572Z,100.00
2022-10-19T18:53:24.047Z,100.00
2022-10-19T18:56:04.989Z,100.00
2022-10-19T18:57:12.575Z,100.00
2022-10-19T18:58:31.436Z,100.00
2022-10-19T19:01:18.368Z,100.00
2022-10-19T19:02:22.188Z,100.00
2022-10-19T19:03:46.877Z,100.00
2022-10-19T19:06:16.409Z,100.00
2022-10-19T19:07:12.587Z,100.00
2022-10-19T19:11:21.778Z,100.00
2022-10-19T19:12:12.757Z,100.00
2022-10-19T19:13:50.544Z,100.00
2022-10-19T19:16:17.188Z,100.00
2022-10-19T19:17:12.572Z,100.00
2022-10-19T19:18:43.681Z,100.00
2022-10-19T19:21:15.819Z,100.00
2022-10-19T19:22:12.597Z,100.00
2022-10-19T19:23:42.984Z,100.00
2022-10-19T19:26:10.297Z,100.00
2022-10-19T19:27:12.569Z,100.00
2022-10-19T19:28:39.256Z,100.00
2022-10-19T19:31:09.084Z,100.00
2022-10-19T19:32:12.572Z,100.00
2022-10-19T19:33:35.898Z,100.00
2022-10-19T19:36:07.570Z,100.00
2022-10-19T19:37:12.556Z,100.00
2022-10-19T19:38:34.620Z,100.00
2022-10-19T19:41:04.251Z,100.00
2022-10-19T19:42:12.600Z,100.00
2022-10-19T19:43:36.937Z,100.00
2022-10-19T19:46:07.875Z,100.00
2022-10-19T19:47:12.569Z,23
2022-10-19T19:48:36.375Z,100.00
2022-10-19T19:51:02.782Z,100.00
2022-10-19T19:52:12.570Z,100.00
2022-10-19T19:53:29.411Z,100.00
2022-10-19T19:55:56.101Z,100.00
2022-10-19T19:57:12.575Z,100.00
2022-10-19T19:58:22.448Z,100.00
2022-10-19T20:00:48.830Z,100.00
2022-10-19T20:02:12.575Z,100.00
2022-10-19T20:03:15.758Z,100.00
2022-10-19T20:05:42.685Z,100.00
2022-10-19T20:07:12.567Z,100.00
2022-10-19T20:08:09.856Z,100.00
2022-10-19T20:10:40.710Z,100.00
2022-10-19T20:12:12.594Z,100.00
2022-10-19T20:13:07.221Z,100.00
2022-10-19T20:15:33.675Z,100.00
2022-10-19T20:17:12.576Z,100.00
2022-10-19T20:18:00.047Z,100.00
2022-10-19T20:20:26.515Z,100.00
2022-10-19T20:22:12.651Z,100.00
2022-10-19T20:22:52.829Z,100.00
2022-10-19T20:25:19.246Z,100.00
2022-10-19T20:27:12.565Z,100.00
2022-10-19T20:27:45.569Z,100.00
2022-10-19T20:30:11.930Z,100.00
2022-10-19T20:32:12.576Z,100.00
2022-10-19T20:32:38.527Z,100.00
2022-10-19T20:35:05.864Z,100.00
2022-10-19T20:37:12.579Z,100.00
2022-10-19T20:37:32.289Z,100.00
2022-10-19T20:39:58.637Z,100.00
2022-10-19T20:42:12.561Z,100.00
2022-10-19T20:42:25.166Z,100.00
2022-10-19T20:44:51.522Z,100.00
2022-10-19T20:47:12.586Z,100.00
2022-10-19T20:47:17.865Z,100.00
2022-10-19T20:49:46.126Z,100.00
2022-10-19T20:52:12.494Z,100.00
2022-10-19T20:52:12.620Z,100.00
2022-10-19T20:54:38.834Z,100.00
2022-10-19T20:57:05.148Z,100.00
2022-10-19T20:57:12.580Z,100.00
2022-10-19T20:59:33.224Z,100.00
2022-10-19T21:01:59.742Z,100.00
2022-10-19T21:02:12.580Z,100.00
2022-10-19T21:04:26.698Z,100.00
2022-10-19T21:06:53.016Z,100.00
2022-10-19T21:07:12.619Z,100.00
2022-10-19T21:09:22.046Z,100.00
2022-10-19T21:11:50.741Z,100.00
2022-10-19T21:12:12.767Z,100.00
2022-10-19T21:14:22.405Z,100.00
2022-10-19T21:16:52.349Z,100.00
2022-10-19T21:17:12.578Z,100.00
2022-10-19T21:19:21.375Z,100.00
2022-10-19T21:21:52.484Z,100.00
2022-10-19T21:22:12.605Z,100.00
2022-10-19T21:24:21.356Z,100.00
2022-10-19T21:26:47.927Z,100.00
2022-10-19T21:27:12.574Z,100.00
2022-10-19T21:29:16.161Z,100.00
2022-10-19T21:31:47.854Z,100.00
2022-10-19T21:32:12.583Z,100.00
2022-10-19T21:34:21.647Z,100.00
2022-10-19T21:36:48.353Z,100.00
2022-10-19T21:37:12.591Z,100.00
2022-10-19T21:39:14.728Z,100.00
2022-10-19T21:41:41.247Z,100.00
2022-10-19T21:42:12.600Z,100.00
2022-10-19T21:44:07.632Z,100.00
2022-10-19T21:46:34.173Z,100.00
2022-10-19T21:47:12.575Z,100.00
2022-10-19T21:49:00.579Z,100.00
2022-10-19T21:51:37.102Z,100.00
2022-10-19T21:52:15.913Z,100.00
2022-10-19T21:56:38.066Z,100.00
2022-10-19T21:57:12.588Z,100.00
2022-10-19T21:59:04.542Z,100.00
2022-10-19T22:01:37.246Z,100.00
2022-10-19T22:02:12.656Z,100.00
2022-10-19T22:04:10.373Z,100.00
2022-10-19T22:06:36.836Z,100.00
2022-10-19T22:07:12.586Z,100.00
2022-10-19T22:09:05.908Z,100.00
2022-10-19T22:11:32.542Z,100.00
2022-10-19T22:14:01.465Z,100.00
2022-10-19T22:16:28.744Z,100.00
2022-10-19T22:17:12.582Z,100.00
2022-10-19T22:18:55.470Z,100.00
2022-10-19T22:21:25.808Z,100.00
2022-10-19T22:22:12.682Z,100.00
2022-10-19T22:23:54.322Z,100.00
2022-10-19T22:26:45.757Z,100.00
2022-10-19T22:27:12.573Z,100.00
2022-10-19T22:29:12.580Z,100.00
2022-10-19T22:31:39.425Z,100.00
2022-10-19T22:32:12.612Z,100.00
2022-10-19T22:34:08.967Z,100.00
2022-10-19T22:36:35.845Z,100.00
2022-10-19T22:37:12.603Z,100.00
2022-10-19T22:39:02.735Z,100.00
2022-10-19T22:41:29.098Z,100.00
2022-10-19T22:42:12.610Z,100.00
2022-10-19T22:43:55.432Z,100.00
2022-10-19T22:46:21.744Z,100.00
2022-10-19T22:47:12.608Z,100.00
2022-10-19T22:48:48.092Z,100.00
2022-10-19T22:51:14.406Z,100.00
2022-10-19T22:52:12.604Z,100.00
2022-10-19T22:53:41.289Z,100.00
2022-10-19T22:56:08.921Z,100.00
2022-10-19T22:57:12.607Z,100.00
2022-10-19T22:58:35.296Z,100.00
2022-10-19T23:01:13.267Z,100.00
2022-10-19T23:02:12.592Z,100.00
2022-10-19T23:03:40.332Z,100.00
2022-10-19T23:06:08.121Z,100.00
2022-10-19T23:07:12.644Z,100.00
2022-10-19T23:08:34.754Z,100.00
2022-10-19T23:11:01.121Z,100.00
2022-10-19T23:12:12.798Z,100.00
2022-10-19T23:13:27.574Z,100.00
2022-10-19T23:15:54.024Z,100.00
2022-10-19T23:17:12.629Z,100.00
2022-10-19T23:18:20.757Z,100.00
2022-10-19T23:20:55.064Z,100.00
2022-10-19T23:22:12.679Z,100.00
2022-10-19T23:23:21.591Z,100.00
2022-10-19T23:26:01.147Z,100.00
2022-10-19T23:27:12.620Z,100.00
2022-10-19T23:28:28.673Z,100.00
2022-10-19T23:30:57.022Z,100.00
2022-10-19T23:32:12.608Z,100.00
2022-10-19T23:33:23.680Z,100.00
2022-10-19T23:35:50.125Z,100.00
2022-10-19T23:37:12.608Z,100.00
2022-10-19T23:38:16.442Z,100.00
2022-10-19T23:40:44.074Z,100.00
2022-10-19T23:42:12.602Z,100.00
2022-10-19T23:43:11.479Z,100.00
2022-10-19T23:45:39.181Z,100.00
2022-10-19T23:47:12.620Z,100.00
2022-10-19T23:48:05.613Z,100.00
2022-10-19T23:50:31.920Z,100.00
2022-10-19T23:52:12.634Z,100.00
2022-10-19T23:52:58.230Z,100.00
2022-10-19T23:55:24.561Z,100.00
2022-10-19T23:57:12.610Z,100.00
2022-10-19T23:57:50.946Z,100.00
